createdAt,value
2017-09-28T00:01:20.281Z,67.40
2017-09-28T00:03:50.182Z,67.20
2017-09-28T00:06:20.077Z,67.20
2017-09-28T00:08:49.898Z,67.00
2017-09-28T00:11:20.666Z,67.30
2017-09-28T00:13:51.366Z,68.20
2017-09-28T00:16:21.183Z,67.40
2017-09-28T00:18:52.176Z,67.00
2017-09-28T00:21:23.630Z,67.50
2017-09-28T00:23:53.416Z,67.20
2017-09-28T00:26:30.708Z,67.30
2017-09-28T00:29:00.757Z,66.90
2017-09-28T00:31:32.456Z,67.40
2017-09-28T00:34:03.126Z,66.70
2017-09-28T00:36:32.905Z,66.00
2017-09-28T00:39:03.201Z,65.70
2017-09-28T00:41:34.698Z,66.10
2017-09-28T00:44:04.836Z,66.10
2017-09-28T00:46:35.761Z,68.00
2017-09-28T00:49:05.538Z,68.20
2017-09-28T00:51:35.521Z,67.40
2017-09-28T00:54:06.430Z,66.60
2017-09-28T00:56:37.365Z,66.40
2017-09-28T00:59:09.033Z,65.90
2017-09-28T01:01:39.878Z,65.90
2017-09-28T01:04:10.522Z,65.60
2017-09-28T01:06:40.361Z,66.40
2017-09-28T01:09:10.888Z,66.70
2017-09-28T01:11:42.558Z,66.80
2017-09-28T01:14:14.206Z,66.70
2017-09-28T01:16:44.693Z,66.50
2017-09-28T01:19:14.642Z,66.50
2017-09-28T01:21:45.934Z,66.90
2017-09-28T01:24:15.859Z,66.90
2017-09-28T01:26:45.875Z,66.30
2017-09-28T01:29:16.240Z,66.30
2017-09-28T01:31:46.993Z,65.70
2017-09-28T01:34:16.791Z,65.60
2017-09-28T01:36:47.413Z,66.10
2017-09-28T01:39:20.026Z,65.90
2017-09-28T01:41:52.011Z,67.90
2017-09-28T01:44:22.364Z,67.90
2017-09-28T01:47:02.834Z,67.70
2017-09-28T01:49:32.853Z,67.10
2017-09-28T01:52:02.890Z,67.40
2017-09-28T01:54:33.407Z,67.90
2017-09-28T01:57:03.041Z,67.80
2017-09-28T01:59:33.581Z,68.20
2017-09-28T02:02:04.263Z,68.10
2017-09-28T02:04:34.793Z,67.50
2017-09-28T02:07:04.259Z,67.00
2017-09-28T02:09:34.738Z,66.70
2017-09-28T02:12:12.129Z,67.00
2017-09-28T02:14:41.667Z,67.30
2017-09-28T02:17:13.972Z,67.50
2017-09-28T02:19:44.529Z,67.50
2017-09-28T02:22:14.340Z,67.00
2017-09-28T02:24:44.339Z,66.60
2017-09-28T02:27:16.209Z,67.40
2017-09-28T02:29:46.747Z,67.90
2017-09-28T02:32:17.219Z,67.50
2017-09-28T02:34:48.528Z,67.70
2017-09-28T02:37:18.452Z,67.60
2017-09-28T02:39:48.308Z,67.80
2017-09-28T02:42:18.192Z,67.70
2017-09-28T02:44:47.822Z,67.30
2017-09-28T02:47:18.613Z,66.60
2017-09-28T02:49:48.233Z,66.50
2017-09-28T02:52:20.167Z,66.50
2017-09-28T02:54:50.740Z,68.10
2017-09-28T02:57:21.869Z,69.60
2017-09-28T02:59:53.292Z,69.60
2017-09-28T03:02:24.140Z,69.60
2017-09-28T03:04:53.705Z,69.70
2017-09-28T03:07:23.277Z,68.90
2017-09-28T03:09:53.898Z,68.60
2017-09-28T03:12:24.832Z,69.20
2017-09-28T03:14:54.519Z,69.20
2017-09-28T03:17:24.322Z,68.20
2017-09-28T03:19:54.139Z,67.70
2017-09-28T03:22:24.073Z,67.40
2017-09-28T03:24:54.679Z,68.10
2017-09-28T03:27:24.442Z,67.70
2017-09-28T03:29:55.236Z,69.20
2017-09-28T03:32:26.059Z,70.80
2017-09-28T03:35:02.732Z,72.30
2017-09-28T03:37:32.240Z,72.40
2017-09-28T03:40:01.355Z,71.20
2017-09-28T03:42:30.452Z,69.90
2017-09-28T03:44:59.705Z,69.20
2017-09-28T03:47:30.357Z,67.90
2017-09-28T03:49:59.491Z,67.70
2017-09-28T03:52:29.199Z,68.80
2017-09-28T03:54:59.019Z,68.20
2017-09-28T03:57:29.376Z,68.30
2017-09-28T03:59:59.382Z,69.80
2017-09-28T04:02:36.867Z,70.50
2017-09-28T04:05:07.845Z,70.90
2017-09-28T04:07:39.217Z,70.70
2017-09-28T04:10:09.139Z,70.70
2017-09-28T04:12:39.830Z,70.80
2017-09-28T04:15:10.642Z,70.60
2017-09-28T04:17:40.105Z,70.60
2017-09-28T04:20:11.788Z,70.00
2017-09-28T04:22:41.562Z,70.90
2017-09-28T04:25:11.354Z,70.10
2017-09-28T04:27:43.759Z,70.40
2017-09-28T04:30:13.586Z,70.30
2017-09-28T04:32:44.471Z,70.30
2017-09-28T04:35:15.183Z,69.50
2017-09-28T04:37:44.838Z,69.80
2017-09-28T04:40:14.957Z,69.90
2017-09-28T04:42:47.329Z,70.80
2017-09-28T04:45:18.016Z,70.50
2017-09-28T04:47:47.924Z,70.40
2017-09-28T04:50:17.611Z,69.90
2017-09-28T04:52:47.385Z,70.10
2017-09-28T04:55:17.825Z,68.90
2017-09-28T04:57:48.370Z,68.90
2017-09-28T05:00:18.882Z,68.80
2017-09-28T05:03:01.226Z,68.80
2017-09-28T05:05:31.102Z,68.80
2017-09-28T05:08:01.392Z,68.50
2017-09-28T05:10:32.057Z,68.50
2017-09-28T05:13:03.589Z,69.20
2017-09-28T05:15:33.447Z,69.00
2017-09-28T05:18:02.882Z,69.00
2017-09-28T05:20:32.251Z,69.20
2017-09-28T05:23:01.919Z,70.00
2017-09-28T05:25:31.535Z,70.10
2017-09-28T05:28:01.211Z,70.30
2017-09-28T05:30:31.146Z,71.70
2017-09-28T05:33:00.802Z,70.50
2017-09-28T05:35:29.824Z,69.80
2017-09-28T05:38:00.597Z,69.60
2017-09-28T05:40:30.252Z,69.20
2017-09-28T05:42:58.702Z,69.10
2017-09-28T05:45:30.995Z,69.00
2017-09-28T05:48:02.053Z,68.90
2017-09-28T05:50:31.624Z,68.70
2017-09-28T05:53:02.024Z,69.70
2017-09-28T05:55:31.972Z,69.60
2017-09-28T05:58:02.603Z,70.60
2017-09-28T06:00:33.187Z,71.10
2017-09-28T06:03:03.329Z,71.00
2017-09-28T06:05:33.061Z,70.40
2017-09-28T06:08:03.691Z,69.70
2017-09-28T06:10:34.096Z,69.30
2017-09-28T06:13:03.883Z,69.20
2017-09-28T06:15:33.709Z,69.70
2017-09-28T06:18:04.428Z,69.50
2017-09-28T06:20:35.472Z,70.10
2017-09-28T06:23:05.126Z,69.50
2017-09-28T06:25:35.422Z,69.50
2017-09-28T06:28:07.015Z,69.50
2017-09-28T06:30:37.095Z,70.10
2017-09-28T06:33:06.169Z,70.10
2017-09-28T06:35:35.517Z,70.10
2017-09-28T06:38:06.243Z,69.80
2017-09-28T06:40:36.707Z,69.90
2017-09-28T06:43:05.158Z,69.50
2017-09-28T06:45:39.875Z,69.90
2017-09-28T06:48:09.025Z,70.60
2017-09-28T06:50:39.314Z,69.80
2017-09-28T06:53:09.016Z,70.40
2017-09-28T06:55:38.218Z,70.60
2017-09-28T06:58:07.281Z,70.80
2017-09-28T07:00:36.701Z,70.20
2017-09-28T07:03:09.117Z,70.00
2017-09-28T07:05:39.299Z,69.70
2017-09-28T07:08:08.571Z,69.70
2017-09-28T07:10:36.998Z,69.80
2017-09-28T07:13:07.071Z,69.40
2017-09-28T07:15:39.175Z,69.40
2017-09-28T07:18:08.755Z,69.50
2017-09-28T07:20:37.501Z,69.30
2017-09-28T07:23:06.800Z,69.30
2017-09-28T07:25:37.315Z,68.80
2017-09-28T07:28:06.595Z,69.60
2017-09-28T07:30:35.733Z,69.40
2017-09-28T07:33:09.830Z,69.40
2017-09-28T07:35:38.906Z,69.70
2017-09-28T07:38:08.248Z,70.90
2017-09-28T07:40:37.929Z,70.60
2017-09-28T07:43:08.312Z,70.10
2017-09-28T07:45:37.437Z,70.00
2017-09-28T07:48:08.467Z,70.10
2017-09-28T07:50:36.887Z,69.60
2017-09-28T07:53:06.843Z,70.30
2017-09-28T07:55:36.072Z,70.30
2017-09-28T07:58:04.463Z,70.40
2017-09-28T08:00:34.476Z,70.00
2017-09-28T08:03:03.024Z,70.00
2017-09-28T08:05:32.235Z,69.40
2017-09-28T08:08:00.893Z,69.00
2017-09-28T08:10:29.451Z,68.40
2017-09-28T08:12:59.022Z,68.00
2017-09-28T08:15:27.486Z,68.00
2017-09-28T08:17:56.838Z,67.80
2017-09-28T08:20:25.273Z,68.20
2017-09-28T08:22:55.247Z,69.20
2017-09-28T08:25:24.368Z,68.00
2017-09-28T08:27:53.630Z,67.80
2017-09-28T08:30:23.475Z,67.50
2017-09-28T08:32:57.221Z,67.50
2017-09-28T08:35:25.581Z,67.80
2017-09-28T08:37:54.153Z,68.60
2017-09-28T08:40:23.148Z,68.70
2017-09-28T08:42:52.989Z,67.60
2017-09-28T08:45:21.523Z,67.60
2017-09-28T08:47:50.604Z,67.40
2017-09-28T08:50:20.301Z,68.40
2017-09-28T08:52:49.454Z,68.60
2017-09-28T08:55:20.321Z,68.50
2017-09-28T08:57:49.847Z,67.50
2017-09-28T09:00:19.964Z,66.00
2017-09-28T09:02:49.380Z,65.90
2017-09-28T09:05:19.301Z,65.50
2017-09-28T09:07:47.990Z,65.10
2017-09-28T09:10:18.213Z,65.30
2017-09-28T09:12:47.120Z,65.30
2017-09-28T09:15:16.460Z,65.50
2017-09-28T09:17:46.671Z,65.60
2017-09-28T09:20:15.963Z,66.30
2017-09-28T09:22:44.763Z,65.30
2017-09-28T09:25:15.981Z,64.20
2017-09-28T09:27:44.850Z,61.30
2017-09-28T09:30:14.617Z,57.90
2017-09-28T09:32:44.423Z,57.80
2017-09-28T09:35:14.253Z,55.80
2017-09-28T09:37:43.069Z,55.60
2017-09-28T09:40:13.357Z,54.40
2017-09-28T09:42:42.099Z,54.30
2017-09-28T09:45:10.786Z,55.90
2017-09-28T09:47:39.166Z,57.00
2017-09-28T09:50:07.979Z,56.40
2017-09-28T09:52:36.510Z,59.00
2017-09-28T09:55:05.826Z,60.10
2017-09-28T09:57:34.059Z,59.60
2017-09-28T10:00:02.892Z,59.10
2017-09-28T10:02:33.037Z,60.80
2017-09-28T10:05:14.321Z,60.80
2017-09-28T10:07:48.497Z,59.90
2017-09-28T10:10:24.028Z,60.10
2017-09-28T10:13:04.249Z,60.00
2017-09-28T10:15:47.589Z,58.90
2017-09-28T10:18:16.152Z,58.50
2017-09-28T10:20:45.252Z,60.30
2017-09-28T10:23:15.676Z,60.70
2017-09-28T10:25:46.150Z,60.80
2017-09-28T10:28:16.410Z,61.10
2017-09-28T10:30:46.860Z,59.80
2017-09-28T10:33:17.376Z,59.80
2017-09-28T10:35:49.266Z,55.80
2017-09-28T10:38:21.839Z,52.90
2017-09-28T10:40:51.350Z,50.70
2017-09-28T10:43:20.368Z,52.00
2017-09-28T10:45:51.675Z,49.70
2017-09-28T10:48:22.362Z,49.90
2017-09-28T10:50:52.019Z,47.00
2017-09-28T10:53:24.064Z,49.60
2017-09-28T10:55:54.316Z,52.20
2017-09-28T10:58:24.319Z,52.20
2017-09-28T11:00:53.520Z,52.00
2017-09-28T11:03:22.890Z,50.10
2017-09-28T11:05:53.414Z,53.10
2017-09-28T11:08:21.953Z,53.00
2017-09-28T11:10:51.190Z,52.90
2017-09-28T11:13:20.260Z,54.00
2017-09-28T11:15:49.219Z,54.10
2017-09-28T11:18:23.692Z,53.10
2017-09-28T11:20:53.482Z,54.40
2017-09-28T11:23:22.032Z,55.60
2017-09-28T11:25:52.423Z,53.80
2017-09-28T11:28:22.776Z,55.00
2017-09-28T11:30:53.526Z,54.00
2017-09-28T11:33:22.464Z,53.80
2017-09-28T11:35:51.771Z,55.20
2017-09-28T11:38:20.406Z,56.70
2017-09-28T11:40:49.303Z,55.90
2017-09-28T11:43:18.518Z,56.60
2017-09-28T11:45:48.281Z,54.00
2017-09-28T11:48:19.490Z,55.60
2017-09-28T11:50:49.011Z,55.20
2017-09-28T11:53:18.327Z,57.00
2017-09-28T11:55:46.782Z,56.10
2017-09-28T11:58:15.791Z,55.90
2017-09-28T12:00:44.775Z,55.00
2017-09-28T12:03:25.408Z,55.50
2017-09-28T12:06:09.447Z,55.00
2017-09-28T12:08:46.776Z,53.40
2017-09-28T12:11:16.294Z,52.80
2017-09-28T12:13:46.780Z,53.80
2017-09-28T12:16:16.350Z,53.50
2017-09-28T12:18:50.759Z,54.40
2017-09-28T12:21:23.513Z,54.10
2017-09-28T12:23:51.958Z,54.60
2017-09-28T12:26:21.060Z,52.90
2017-09-28T12:28:49.397Z,53.10
2017-09-28T12:31:19.575Z,52.30
2017-09-28T12:33:59.924Z,52.10
2017-09-28T12:36:28.792Z,52.80
2017-09-28T12:38:59.153Z,51.00
2017-09-28T12:41:28.873Z,51.00
2017-09-28T12:44:05.835Z,50.80
2017-09-28T12:46:35.520Z,50.50
2017-09-28T12:49:12.251Z,49.00
2017-09-28T12:51:47.745Z,50.60
2017-09-28T12:54:19.879Z,50.70
2017-09-28T12:56:48.916Z,50.50
2017-09-28T12:59:18.574Z,48.00
2017-09-28T13:01:47.770Z,50.00
2017-09-28T13:04:17.943Z,51.70
2017-09-28T13:06:46.245Z,51.40
2017-09-28T13:09:17.175Z,51.20
2017-09-28T13:11:45.437Z,51.60
2017-09-28T13:14:24.464Z,51.40
2017-09-28T13:16:54.621Z,51.90
2017-09-28T13:19:23.296Z,51.60
2017-09-28T13:21:52.072Z,51.90
2017-09-28T13:24:21.031Z,51.80
2017-09-28T13:26:51.378Z,49.70
2017-09-28T13:29:20.381Z,50.60
2017-09-28T13:31:49.163Z,50.50
2017-09-28T13:34:20.667Z,49.90
2017-09-28T13:36:49.043Z,50.00
2017-09-28T13:39:19.298Z,50.30
2017-09-28T13:41:48.729Z,50.80
2017-09-28T13:44:17.900Z,50.80
2017-09-28T13:46:47.575Z,50.20
2017-09-28T13:49:16.398Z,48.20
2017-09-28T13:51:45.676Z,50.10
2017-09-28T13:54:15.088Z,50.00
2017-09-28T13:56:43.999Z,51.20
2017-09-28T13:59:13.370Z,51.20
2017-09-28T14:01:47.857Z,51.10
2017-09-28T14:04:16.260Z,50.10
2017-09-28T14:06:45.114Z,50.60
2017-09-28T14:09:13.785Z,50.40
2017-09-28T14:11:43.298Z,51.10
2017-09-28T14:14:13.501Z,51.80
2017-09-28T14:16:43.222Z,52.40
2017-09-28T14:19:12.548Z,52.40
2017-09-28T14:21:42.086Z,53.20
2017-09-28T14:24:12.130Z,52.70
2017-09-28T14:26:41.302Z,52.70
2017-09-28T14:29:10.829Z,52.40
2017-09-28T14:31:39.295Z,52.50
2017-09-28T14:34:08.761Z,52.90
2017-09-28T14:36:38.571Z,52.30
2017-09-28T14:39:09.670Z,52.30
2017-09-28T14:41:39.229Z,52.60
2017-09-28T14:44:08.913Z,52.20
2017-09-28T14:46:39.362Z,51.70
2017-09-28T14:49:08.458Z,51.70
2017-09-28T14:51:38.083Z,51.50
2017-09-28T14:54:07.447Z,51.30
2017-09-28T14:56:37.833Z,52.30
2017-09-28T14:59:06.765Z,52.20
2017-09-28T15:01:36.497Z,52.80
2017-09-28T15:04:05.808Z,53.40
2017-09-28T15:06:35.367Z,53.50
2017-09-28T15:09:04.745Z,54.50
2017-09-28T15:11:33.686Z,54.00
2017-09-28T15:14:03.287Z,53.50
2017-09-28T15:16:32.661Z,52.70
2017-09-28T15:19:02.293Z,52.60
2017-09-28T15:21:32.664Z,53.80
2017-09-28T15:24:05.683Z,53.70
2017-09-28T15:26:34.115Z,52.90
2017-09-28T15:29:02.811Z,52.90
2017-09-28T15:31:31.854Z,53.30
2017-09-28T15:34:08.831Z,53.10
2017-09-28T15:36:38.083Z,53.80
2017-09-28T15:39:05.706Z,53.60
2017-09-28T15:41:33.269Z,54.10
2017-09-28T15:44:00.886Z,54.60
2017-09-28T15:46:28.451Z,54.70
2017-09-28T15:48:56.029Z,55.60
2017-09-28T15:51:23.652Z,55.20
2017-09-28T15:53:54.233Z,54.50
2017-09-28T15:56:24.051Z,54.30
2017-09-28T15:58:53.884Z,54.00
2017-09-28T16:01:25.425Z,54.40
2017-09-28T16:04:03.198Z,54.70
2017-09-28T16:06:33.030Z,54.70
2017-09-28T16:09:02.680Z,55.10
2017-09-28T16:11:32.581Z,55.10
2017-09-28T16:14:02.391Z,55.20
2017-09-28T16:16:32.179Z,54.80
2017-09-28T16:19:03.860Z,55.20
2017-09-28T16:21:34.487Z,55.60
2017-09-28T16:24:04.994Z,55.50
2017-09-28T16:26:35.648Z,55.40
2017-09-28T16:29:06.059Z,55.70
2017-09-28T16:31:35.835Z,55.70
2017-09-28T16:34:05.510Z,56.30
2017-09-28T16:36:35.187Z,56.30
2017-09-28T16:39:06.690Z,56.50
2017-09-28T16:41:36.236Z,56.80
2017-09-28T16:44:06.754Z,56.80
2017-09-28T16:46:36.628Z,57.30
2017-09-28T16:49:06.561Z,57.30
2017-09-28T16:51:36.271Z,58.00
2017-09-28T16:54:07.522Z,59.20
2017-09-28T16:56:38.207Z,60.60
2017-09-28T16:59:08.431Z,62.10
2017-09-28T17:01:39.062Z,62.00
2017-09-28T17:04:10.345Z,62.30
2017-09-28T17:06:39.975Z,62.70
2017-09-28T17:09:09.876Z,62.30
2017-09-28T17:11:39.937Z,61.90
2017-09-28T17:14:10.304Z,61.30
2017-09-28T17:16:40.006Z,61.10
2017-09-28T17:19:09.906Z,61.00
2017-09-28T17:21:40.614Z,61.50
2017-09-28T17:24:10.538Z,61.50
2017-09-28T17:26:41.159Z,62.90
2017-09-28T17:29:11.023Z,64.40
2017-09-28T17:31:42.241Z,66.40
2017-09-28T17:34:14.746Z,66.40
2017-09-28T17:36:45.262Z,65.90
2017-09-28T17:39:16.007Z,66.30
2017-09-28T17:41:45.964Z,66.20
2017-09-28T17:44:15.621Z,65.40
2017-09-28T17:46:46.200Z,64.60
2017-09-28T17:49:16.023Z,64.60
2017-09-28T17:51:45.726Z,64.60
2017-09-28T17:54:15.572Z,64.90
2017-09-28T17:56:45.293Z,65.50
2017-09-28T17:59:22.820Z,65.50
2017-09-28T18:01:52.778Z,66.70
2017-09-28T18:04:22.417Z,66.60
2017-09-28T18:06:55.995Z,67.20
2017-09-28T18:09:25.532Z,67.10
2017-09-28T18:11:59.968Z,66.10
2017-09-28T18:14:29.827Z,66.10
2017-09-28T18:16:59.641Z,65.50
2017-09-28T18:19:30.408Z,65.20
2017-09-28T18:22:01.035Z,70.50
2017-09-28T18:24:31.930Z,70.80
2017-09-28T18:27:02.722Z,70.80
2017-09-28T18:29:34.280Z,69.20
2017-09-28T18:32:04.887Z,68.70
2017-09-28T18:34:34.559Z,68.70
2017-09-28T18:37:04.199Z,68.70
2017-09-28T18:39:34.071Z,67.90
2017-09-28T18:42:04.161Z,67.40
2017-09-28T18:44:34.528Z,67.00
2017-09-28T18:47:05.362Z,66.90
2017-09-28T18:49:44.713Z,67.10
2017-09-28T18:52:14.700Z,67.10
2017-09-28T18:54:44.352Z,67.10
2017-09-28T18:57:14.162Z,67.40
2017-09-28T18:59:43.785Z,66.80
2017-09-28T19:02:15.459Z,68.50
2017-09-28T19:04:47.037Z,69.40
2017-09-28T19:07:17.074Z,69.30
2017-09-28T19:09:46.745Z,68.90
2017-09-28T19:12:17.377Z,72.30
2017-09-28T19:14:49.165Z,72.10
2017-09-28T19:17:18.954Z,72.30
2017-09-28T19:19:48.467Z,73.20
2017-09-28T19:22:18.058Z,72.50
2017-09-28T19:24:49.762Z,71.50
2017-09-28T19:27:28.248Z,71.40
2017-09-28T19:29:58.997Z,71.10
2017-09-28T19:32:28.896Z,71.70
2017-09-28T19:34:58.745Z,71.60
2017-09-28T19:37:28.465Z,71.80
2017-09-28T19:39:58.337Z,71.00
2017-09-28T19:42:29.563Z,69.40
2017-09-28T19:45:00.259Z,68.30
2017-09-28T19:47:31.009Z,68.20
2017-09-28T19:50:02.621Z,67.50
2017-09-28T19:52:32.114Z,67.10
2017-09-28T19:55:01.876Z,66.80
2017-09-28T19:57:31.476Z,67.40
2017-09-28T20:00:01.050Z,67.80
2017-09-28T20:02:30.543Z,68.70
2017-09-28T20:05:01.057Z,68.80
2017-09-28T20:07:33.068Z,68.80
2017-09-28T20:10:02.777Z,68.80
2017-09-28T20:12:32.665Z,68.80
2017-09-28T20:15:03.235Z,68.30
2017-09-28T20:17:33.230Z,67.80
2017-09-28T20:20:03.593Z,68.40
2017-09-28T20:22:33.611Z,69.10
2017-09-28T20:25:02.921Z,68.60
2017-09-28T20:27:33.742Z,68.10
2017-09-28T20:30:03.506Z,68.30
2017-09-28T20:32:33.162Z,68.60
2017-09-28T20:35:02.725Z,69.10
2017-09-28T20:37:33.622Z,69.70
2017-09-28T20:40:07.447Z,69.30
2017-09-28T20:42:37.137Z,69.80
2017-09-28T20:45:06.970Z,69.90
2017-09-28T20:47:36.619Z,70.20
2017-09-28T20:50:08.203Z,69.60
2017-09-28T20:52:38.147Z,69.80
2017-09-28T20:55:08.477Z,69.40
2017-09-28T20:57:39.126Z,68.60
2017-09-28T21:00:11.300Z,68.60
2017-09-28T21:02:42.242Z,68.30
2017-09-28T21:05:12.091Z,69.00
2017-09-28T21:07:41.632Z,69.90
2017-09-28T21:10:11.351Z,70.60
2017-09-28T21:12:41.648Z,70.10
2017-09-28T21:15:11.467Z,70.10
2017-09-28T21:17:41.153Z,70.50
2017-09-28T21:20:11.128Z,70.40
2017-09-28T21:22:41.972Z,70.00
2017-09-28T21:25:12.784Z,70.00
2017-09-28T21:27:43.190Z,70.70
2017-09-28T21:30:12.804Z,70.60
2017-09-28T21:32:42.630Z,70.10
2017-09-28T21:35:14.204Z,71.00
2017-09-28T21:37:44.138Z,70.30
2017-09-28T21:40:13.992Z,69.70
2017-09-28T21:42:44.748Z,69.30
2017-09-28T21:45:15.705Z,69.10
2017-09-28T21:47:46.129Z,68.70
2017-09-28T21:50:16.724Z,69.80
2017-09-28T21:52:46.435Z,69.80
2017-09-28T21:55:17.216Z,70.30
2017-09-28T21:57:48.208Z,71.00
2017-09-28T22:00:19.005Z,71.00
2017-09-28T22:02:48.687Z,71.20
2017-09-28T22:05:19.095Z,71.30
2017-09-28T22:07:48.924Z,71.20
2017-09-28T22:10:19.452Z,70.60
2017-09-28T22:12:49.799Z,70.00
2017-09-28T22:15:20.868Z,69.90
2017-09-28T22:17:50.401Z,70.10
2017-09-28T22:20:20.231Z,70.00
2017-09-28T22:22:51.712Z,69.70
2017-09-28T22:25:22.248Z,70.10
2017-09-28T22:27:51.950Z,70.10
2017-09-28T22:30:22.654Z,71.00
2017-09-28T22:32:52.289Z,70.90
2017-09-28T22:35:22.087Z,70.40
2017-09-28T22:37:52.583Z,71.70
2017-09-28T22:40:22.386Z,71.70
2017-09-28T22:42:52.289Z,71.10
2017-09-28T22:45:21.907Z,71.40
2017-09-28T22:47:53.259Z,71.40
2017-09-28T22:50:22.934Z,71.60
2017-09-28T22:52:53.335Z,71.20
2017-09-28T22:55:23.123Z,70.90
2017-09-28T22:57:52.852Z,70.90
2017-09-28T23:00:22.178Z,70.90
2017-09-28T23:02:52.962Z,70.70
2017-09-28T23:05:22.729Z,70.50
2017-09-28T23:07:52.501Z,70.40
2017-09-28T23:10:22.130Z,70.30
2017-09-28T23:12:53.744Z,70.20
2017-09-28T23:15:23.552Z,70.20
2017-09-28T23:17:53.328Z,70.20
2017-09-28T23:20:24.627Z,70.80
2017-09-28T23:22:54.337Z,70.70
2017-09-28T23:25:24.219Z,70.60
2017-09-28T23:27:54.765Z,70.70
2017-09-28T23:30:24.370Z,71.70
2017-09-28T23:32:54.068Z,72.90
2017-09-28T23:35:23.407Z,73.30
2017-09-28T23:37:53.235Z,72.50
2017-09-28T23:40:22.694Z,71.70
2017-09-28T23:42:52.329Z,71.30
2017-09-28T23:45:22.111Z,71.60
2017-09-28T23:47:52.834Z,72.60
2017-09-28T23:50:22.384Z,72.30
2017-09-28T23:52:52.164Z,72.50
2017-09-28T23:55:21.706Z,72.70
2017-09-28T23:57:52.578Z,72.40
